Time;durP1;ratioP1;P1;durP2;ratioP2;P2;SDS_P1;SDS_P2;PMS_P1;PMS_P2;Temp;Humidity;BMP_temperature;BMP_pressure;BME280_temperature;BME280_humidity;BME280_pressure;Samples;Min_cycle;Max_cycle;Signal;HPM_P1;HPM_P2
2023/05/14 00:01:04;;;;;;;4.85;3.95;;;11.20;99.90;;;;;;5052439;28;20197;-67
2023/05/14 00:03:31;;;;;;;4.75;3.90;;;11.20;99.90;;;;;;5052270;28;20205;-67
2023/05/14 00:05:58;;;;;;;4.07;3.75;;;11.20;99.90;;;;;;5052313;28;20232;-67
2023/05/14 00:08:24;;;;;;;3.85;3.42;;;11.20;99.90;;;;;;5052640;28;20197;-67
2023/05/14 00:10:52;;;;;;;4.28;3.90;;;11.20;99.90;;;;;;5065968;28;20283;-67
2023/05/14 00:13:20;;;;;;;5.93;4.20;;;11.20;99.90;;;;;;5072293;28;20629;-67
2023/05/14 00:15:47;;;;;;;4.25;3.85;;;11.20;99.90;;;;;;5072286;28;20224;-67
2023/05/14 00:18:13;;;;;;;4.95;4.22;;;11.10;99.90;;;;;;5064553;28;20205;-67
2023/05/14 00:20:41;;;;;;;4.93;4.50;;;11.10;99.90;;;;;;5052059;28;20193;-67
2023/05/14 00:23:07;;;;;;;5.57;4.50;;;11.10;99.90;;;;;;5052717;28;20588;-68
2023/05/14 00:25:34;;;;;;;4.85;3.80;;;11.10;99.90;;;;;;5052224;28;20205;-67
2023/05/14 00:28:01;;;;;;;5.47;4.43;;;11.10;99.90;;;;;;5052115;28;20197;-67
2023/05/14 00:30:29;;;;;;;5.78;4.22;;;11.10;99.90;;;;;;5052203;28;20828;-68
2023/05/14 00:32:56;;;;;;;3.83;3.38;;;11.00;99.90;;;;;;5052341;28;20193;-67
2023/05/14 00:35:23;;;;;;;7.32;4.70;;;11.10;99.90;;;;;;5051888;28;20217;-67
2023/05/14 00:37:49;;;;;;;4.43;4.03;;;11.10;99.90;;;;;;5052225;28;20224;-67
2023/05/14 00:40:16;;;;;;;4.80;4.40;;;11.00;99.90;;;;;;5051826;28;20220;-67
2023/05/14 00:42:43;;;;;;;5.38;4.30;;;11.00;99.90;;;;;;5043912;28;20201;-67
2023/05/14 00:45:10;;;;;;;5.07;3.95;;;11.00;99.90;;;;;;5051357;28;20201;-67
2023/05/14 00:47:39;;;;;;;5.15;4.70;;;11.00;99.90;;;;;;5051823;28;20217;-68
2023/05/14 00:50:06;;;;;;;4.53;4.10;;;11.00;99.90;;;;;;5051523;28;20197;-67
2023/05/14 00:52:33;;;;;;;4.68;4.18;;;11.10;99.90;;;;;;5051695;28;20208;-67
2023/05/14 00:55:02;;;;;;;4.65;4.20;;;11.00;99.90;;;;;;5051270;28;20219;-67
2023/05/14 00:57:29;;;;;;;3.65;3.35;;;11.00;99.90;;;;;;5051681;28;20577;-67
2023/05/14 00:59:56;;;;;;;5.30;4.50;;;11.00;99.90;;;;;;5051502;28;20205;-67
2023/05/14 01:02:23;;;;;;;6.30;5.70;;;11.00;99.90;;;;;;5051539;28;20220;-67
2023/05/14 01:04:51;;;;;;;5.60;4.95;;;11.00;99.90;;;;;;5051358;28;20197;-68
2023/05/14 01:07:26;;;;;;;5.22;4.72;;;11.00;99.90;;;;;;5051424;28;20305;-67
2023/05/14 01:09:58;;;;;;;5.22;4.57;;;11.00;99.90;;;;;;5044393;28;20564;-67
2023/05/14 01:12:32;;;;;;;6.63;4.68;;;11.00;99.90;;;;;;5051218;28;20616;-67
2023/05/14 01:15:04;;;;;;;6.13;5.32;;;11.00;99.90;;;;;;5050028;28;20554;-67
2023/05/14 01:17:33;;;;;;;6.50;5.22;;;11.00;99.90;;;;;;5051346;28;20229;-67
2023/05/14 01:20:03;;;;;;;5.85;5.20;;;11.00;99.90;;;;;;5050969;28;20193;-67
2023/05/14 01:22:31;;;;;;;6.30;5.50;;;11.00;99.90;;;;;;5051333;28;20236;-67
2023/05/14 01:24:58;;;;;;;5.68;5.05;;;10.90;99.90;;;;;;5050854;28;20198;-67
2023/05/14 01:27:35;;;;;;;5.53;5.03;;;11.00;99.90;;;;;;5050929;28;20311;-67
2023/05/14 01:30:09;;;;;;;5.30;4.75;;;11.00;99.90;;;;;;5050926;28;20208;-68
2023/05/14 01:32:36;;;;;;;5.57;5.05;;;10.90;99.90;;;;;;5051037;28;20582;-68
2023/05/14 01:35:04;;;;;;;5.68;5.18;;;10.90;99.90;;;;;;5050465;28;20213;-68
2023/05/14 01:37:33;;;;;;;5.72;5.15;;;10.90;99.90;;;;;;5050938;28;20229;-68
2023/05/14 01:40:00;;;;;;;6.05;5.10;;;10.80;99.90;;;;;;5050584;28;20201;-69
2023/05/14 01:42:28;;;;;;;5.70;4.50;;;10.80;99.90;;;;;;5050749;28;20619;-68
2023/05/14 01:44:55;;;;;;;7.00;5.40;;;10.70;99.90;;;;;;5063324;28;20197;-67
2023/05/14 01:47:22;;;;;;;5.47;4.95;;;10.60;99.90;;;;;;5070258;28;20224;-68
2023/05/14 01:49:49;;;;;;;5.05;4.65;;;10.50;99.90;;;;;;5070384;28;20278;-68
2023/05/14 01:52:15;;;;;;;6.13;4.30;;;10.40;99.90;;;;;;5070300;28;20686;-67
2023/05/14 01:54:43;;;;;;;5.32;4.47;;;10.30;99.90;;;;;;5069933;28;20224;-67
2023/05/14 01:57:10;;;;;;;6.20;5.00;;;10.20;99.90;;;;;;5070106;28;20224;-67
2023/05/14 01:59:37;;;;;;;5.13;4.32;;;10.10;99.90;;;;;;5070150;28;20200;-67
2023/05/14 02:02:03;;;;;;;5.10;4.60;;;10.10;99.90;;;;;;5070267;28;20200;-68
2023/05/14 02:04:30;;;;;;;5.05;4.22;;;10.00;99.90;;;;;;5069768;28;20234;-67
2023/05/14 02:06:57;;;;;;;5.25;4.75;;;9.90;99.90;;;;;;5070088;28;20270;-68
2023/05/14 02:09:24;;;;;;;6.38;4.18;;;9.90;99.90;;;;;;5069742;28;20207;-67
2023/05/14 02:11:52;;;;;;;5.43;4.78;;;9.80;99.90;;;;;;5070028;28;20691;-68
2023/05/14 02:14:18;;;;;;;5.25;4.03;;;9.80;99.90;;;;;;5069435;28;20322;-67
2023/05/14 02:16:45;;;;;;;4.53;4.10;;;9.80;99.90;;;;;;5069962;28;20216;-67
2023/05/14 02:19:12;;;;;;;5.35;4.70;;;9.70;99.90;;;;;;5069781;28;20200;-67
2023/05/14 02:21:38;;;;;;;4.85;4.10;;;9.70;99.90;;;;;;5069656;28;20612;-67
2023/05/14 02:24:05;;;;;;;5.60;5.00;;;9.60;99.90;;;;;;5069405;28;20683;-68
2023/05/14 02:26:32;;;;;;;6.45;4.45;;;9.60;99.90;;;;;;5069641;28;20613;-67
2023/05/14 02:29:00;;;;;;;5.05;4.50;;;9.50;99.90;;;;;;5069737;28;20201;-68
2023/05/14 02:31:27;;;;;;;5.70;5.18;;;9.50;99.90;;;;;;5069748;28;20211;-68
2023/05/14 02:33:53;;;;;;;5.00;4.50;;;9.40;99.90;;;;;;5069533;28;20207;-67
2023/05/14 02:36:20;;;;;;;5.45;4.53;;;9.40;99.90;;;;;;5069580;28;20228;-67
2023/05/14 02:38:46;;;;;;;8.25;5.65;;;9.40;99.90;;;;;;5066268;28;20197;-68
2023/05/14 02:41:13;;;;;;;5.55;5.05;;;9.40;99.90;;;;;;5049417;28;20204;-68
2023/05/14 02:43:40;;;;;;;6.90;5.78;;;9.50;99.90;;;;;;5049326;28;20205;-68
2023/05/14 02:46:08;;;;;;;6.10;5.30;;;9.50;99.90;;;;;;5049486;28;20608;-69
2023/05/14 02:48:34;;;;;;;6.70;5.10;;;9.60;99.90;;;;;;5049521;28;20201;-69
2023/05/14 02:51:01;;;;;;;5.57;5.00;;;9.60;99.90;;;;;;5049533;28;20204;-68
2023/05/14 02:53:28;;;;;;;7.32;4.82;;;9.60;99.90;;;;;;5049705;28;20848;-68
2023/05/14 02:55:55;;;;;;;5.90;5.35;;;9.60;99.90;;;;;;5061581;28;20248;-68
2023/05/14 02:58:21;;;;;;;5.47;4.97;;;9.70;99.90;;;;;;5069609;28;20222;-68
2023/05/14 03:00:48;;;;;;;7.93;6.25;;;9.70;99.90;;;;;;5069399;28;20200;-69
2023/05/14 03:03:16;;;;;;;6.15;5.15;;;9.70;99.90;;;;;;5069376;28;20196;-68
2023/05/14 03:05:43;;;;;;;5.88;5.35;;;9.80;99.90;;;;;;5069114;28;20813;-68
2023/05/14 03:08:10;;;;;;;5.60;4.95;;;9.80;99.90;;;;;;5069473;28;20200;-69
2023/05/14 03:10:36;;;;;;;5.95;5.35;;;9.80;99.90;;;;;;5069259;28;20200;-69
2023/05/14 03:13:03;;;;;;;6.40;5.70;;;9.70;99.90;;;;;;5069367;28;20196;-69
2023/05/14 03:15:30;;;;;;;7.47;5.40;;;9.80;99.90;;;;;;5068953;28;20581;-68
2023/05/14 03:17:56;;;;;;;6.38;5.60;;;9.80;99.90;;;;;;5069372;28;20238;-69
2023/05/14 03:20:25;;;;;;;7.22;5.80;;;9.80;99.90;;;;;;5069311;28;20200;-69
2023/05/14 03:22:52;;;;;;;6.38;5.45;;;9.80;99.90;;;;;;5069549;28;20228;-69
2023/05/14 03:25:18;;;;;;;6.95;5.53;;;9.90;99.90;;;;;;5068838;28;20213;-69
2023/05/14 03:27:45;;;;;;;6.93;6.22;;;9.90;99.90;;;;;;5069162;28;20224;-69
2023/05/14 03:30:12;;;;;;;7.78;5.65;;;9.90;99.90;;;;;;5068819;28;20274;-69
2023/05/14 03:32:40;;;;;;;7.80;5.93;;;9.90;99.90;;;;;;5069289;28;20201;-69
2023/05/14 03:35:07;;;;;;;8.00;6.20;;;10.00;99.90;;;;;;5063317;28;20726;-69
2023/05/14 03:37:35;;;;;;;7.15;5.90;;;9.90;99.90;;;;;;5050108;28;20243;-69
2023/05/14 03:40:02;;;;;;;7.38;5.97;;;10.00;99.90;;;;;;5052779;28;20201;-68
2023/05/14 03:42:29;;;;;;;6.32;5.72;;;10.00;99.90;;;;;;5052932;28;20248;-68
2023/05/14 03:44:55;;;;;;;7.63;6.68;;;10.10;99.90;;;;;;5052365;28;20288;-69
2023/05/14 03:47:22;;;;;;;7.40;5.88;;;10.10;99.90;;;;;;5052727;28;20221;-69
2023/05/14 03:49:49;;;;;;;8.88;6.75;;;10.10;99.90;;;;;;5052512;28;20209;-69
2023/05/14 03:52:16;;;;;;;6.97;6.28;;;10.10;99.90;;;;;;5052577;28;20583;-69
2023/05/14 03:54:44;;;;;;;6.75;5.97;;;10.10;99.90;;;;;;5052315;28;20201;-69
2023/05/14 03:57:10;;;;;;;7.65;6.07;;;10.10;99.90;;;;;;5052473;28;20228;-68
2023/05/14 03:59:37;;;;;;;6.00;5.40;;;10.10;99.90;;;;;;5052306;28;20680;-69
2023/05/14 04:02:04;;;;;;;6.00;5.32;;;10.10;99.90;;;;;;5052501;28;20575;-68
2023/05/14 04:04:31;;;;;;;8.07;6.40;;;10.10;99.90;;;;;;5051973;28;20207;-68
2023/05/14 04:06:58;;;;;;;7.43;6.45;;;10.10;99.90;;;;;;5052319;28;20684;-69
2023/05/14 04:09:24;;;;;;;6.90;5.93;;;10.20;99.90;;;;;;5052278;28;20220;-68
2023/05/14 04:11:52;;;;;;;8.25;6.38;;;10.10;99.90;;;;;;5052168;28;20197;-68
2023/05/14 04:14:19;;;;;;;6.80;5.57;;;10.10;99.90;;;;;;5051734;28;20209;-68
2023/05/14 04:16:46;;;;;;;8.25;5.90;;;10.20;99.90;;;;;;5052037;28;20224;-68
2023/05/14 04:19:12;;;;;;;8.23;6.85;;;10.10;99.90;;;;;;5051946;28;20201;-68
2023/05/14 04:21:39;;;;;;;6.60;5.90;;;10.20;99.90;;;;;;5052174;28;20201;-69
2023/05/14 04:24:06;;;;;;;10.75;6.13;;;10.20;99.90;;;;;;5051413;28;20201;-68
2023/05/14 04:26:34;;;;;;;6.43;5.68;;;10.20;99.90;;;;;;5051762;28;20237;-68
2023/05/14 04:29:02;;;;;;;7.68;5.55;;;10.20;99.90;;;;;;5051707;28;20197;-68
2023/05/14 04:31:28;;;;;;;6.78;5.72;;;10.20;99.90;;;;;;5052093;28;20553;-68
2023/05/14 04:33:55;;;;;;;6.10;5.40;;;10.30;99.90;;;;;;5051497;28;20205;-68
2023/05/14 04:36:22;;;;;;;6.78;5.35;;;10.30;99.90;;;;;;5051782;28;20225;-69
2023/05/14 04:38:48;;;;;;;7.20;6.05;;;10.30;99.90;;;;;;5051698;28;20204;-68
2023/05/14 04:41:15;;;;;;;7.85;6.57;;;10.30;99.90;;;;;;5051530;28;20208;-69
2023/05/14 04:43:43;;;;;;;6.93;6.13;;;10.30;99.90;;;;;;5051575;28;20213;-69
2023/05/14 04:46:11;;;;;;;7.55;5.68;;;10.30;99.90;;;;;;5051197;28;20221;-69
2023/05/14 04:48:37;;;;;;;5.88;5.18;;;10.40;99.90;;;;;;5051513;28;20201;-68
2023/05/14 04:51:04;;;;;;;7.45;5.60;;;10.40;99.90;;;;;;5051291;28;20200;-68
2023/05/14 04:53:31;;;;;;;10.07;6.72;;;10.40;99.90;;;;;;5051574;28;20820;-69
2023/05/14 04:55:57;;;;;;;7.68;5.88;;;10.40;99.90;;;;;;5043001;28;20580;-69
2023/05/14 04:58:27;;;;;;;7.18;5.85;;;10.40;99.90;;;;;;5058414;28;20694;-69
2023/05/14 05:00:54;;;;;;;7.50;6.50;;;10.40;99.90;;;;;;5070825;28;20686;-69
2023/05/14 05:03:22;;;;;;;6.38;5.68;;;10.40;99.90;;;;;;5071349;28;20227;-69
2023/05/14 05:05:49;;;;;;;8.27;6.32;;;10.40;99.90;;;;;;5070675;28;20192;-69
2023/05/14 05:08:15;;;;;;;6.72;5.80;;;10.40;99.90;;;;;;5070745;28;20717;-69
2023/05/14 05:10:42;;;;;;;8.02;6.13;;;10.50;99.90;;;;;;5070835;28;20764;-69
2023/05/14 05:13:09;;;;;;;7.47;5.63;;;10.40;99.90;;;;;;5071129;28;20200;-69
2023/05/14 05:15:35;;;;;;;7.63;5.55;;;10.40;99.90;;;;;;5070602;28;20584;-68
2023/05/14 05:18:02;;;;;;;11.00;7.43;;;10.50;99.90;;;;;;5071093;28;20223;-69
2023/05/14 05:20:31;;;;;;;9.23;7.50;;;10.50;99.90;;;;;;5070739;28;20205;-68
2023/05/14 05:22:58;;;;;;;9.35;6.95;;;10.50;99.90;;;;;;5070681;28;20204;-69
2023/05/14 05:25:25;;;;;;;7.03;6.28;;;10.50;99.90;;;;;;5070854;28;20565;-69
2023/05/14 05:27:51;;;;;;;7.25;6.05;;;10.50;99.90;;;;;;5071033;28;20224;-69
2023/05/14 05:30:18;;;;;;;7.28;5.95;;;10.60;99.90;;;;;;5070765;28;20285;-69
2023/05/14 05:32:45;;;;;;;7.57;5.95;;;10.50;99.90;;;;;;5071086;28;20223;-69
2023/05/14 05:35:12;;;;;;;8.00;6.00;;;10.60;99.90;;;;;;5070537;28;20543;-69
2023/05/14 05:37:40;;;;;;;8.32;6.10;;;10.60;99.90;;;;;;5070669;28;20573;-68
2023/05/14 05:40:09;;;;;;;9.43;6.32;;;10.60;99.90;;;;;;5070557;28;20232;-69
2023/05/14 05:42:35;;;;;;;6.25;5.40;;;10.60;99.90;;;;;;5070827;28;20204;-69
2023/05/14 05:45:02;;;;;;;7.93;6.70;;;10.70;99.90;;;;;;5070305;28;20196;-69
2023/05/14 05:47:29;;;;;;;6.20;5.60;;;10.70;99.90;;;;;;5070549;28;20220;-68
2023/05/14 05:49:55;;;;;;;6.60;5.90;;;10.70;99.90;;;;;;5070429;28;20212;-68
2023/05/14 05:52:22;;;;;;;7.18;5.72;;;10.70;99.90;;;;;;5070624;28;20295;-69
2023/05/14 05:54:50;;;;;;;9.05;6.03;;;10.70;99.90;;;;;;5070259;28;20207;-68
2023/05/14 05:57:17;;;;;;;8.32;6.53;;;10.70;99.90;;;;;;5056375;28;20229;-69
2023/05/14 05:59:43;;;;;;;6.55;5.20;;;10.70;99.90;;;;;;5050181;28;20734;-68
2023/05/14 06:02:10;;;;;;;7.57;6.13;;;10.70;99.90;;;;;;5050204;28;20201;-68
2023/05/14 06:04:37;;;;;;;6.38;5.43;;;10.80;99.90;;;;;;5050039;28;20274;-69
2023/05/14 06:07:04;;;;;;;8.05;6.60;;;10.80;99.90;;;;;;5050315;28;20290;-68
2023/05/14 06:09:30;;;;;;;6.78;6.10;;;10.90;99.90;;;;;;5050420;28;20197;-69
2023/05/14 06:11:58;;;;;;;6.05;5.38;;;11.00;99.90;;;;;;5050245;28;20201;-68
2023/05/14 06:14:25;;;;;;;8.25;6.05;;;11.00;99.90;;;;;;5050101;28;20219;-69
2023/05/14 06:16:51;;;;;;;7.75;5.90;;;11.10;99.90;;;;;;5050105;28;20221;-69
2023/05/14 06:19:18;;;;;;;6.57;5.88;;;11.10;99.90;;;;;;5050057;28;20201;-68
2023/05/14 06:21:45;;;;;;;6.97;5.43;;;11.20;99.90;;;;;;5050041;28;20600;-69
2023/05/14 06:24:12;;;;;;;4.90;4.40;;;11.20;99.90;;;;;;5049821;28;20197;-69
2023/05/14 06:26:38;;;;;;;6.07;5.47;;;11.20;99.90;;;;;;5049987;28;20221;-69
2023/05/14 06:29:06;;;;;;;7.30;5.80;;;11.30;99.90;;;;;;5050031;28;20220;-69
2023/05/14 06:31:33;;;;;;;7.70;5.85;;;11.30;99.90;;;;;;5050289;28;20201;-68
2023/05/14 06:34:00;;;;;;;6.15;5.38;;;11.30;99.90;;;;;;5048104;28;20288;-69
2023/05/14 06:36:26;;;;;;;5.93;5.32;;;11.30;99.90;;;;;;5047198;28;20275;-69
2023/05/14 06:38:53;;;;;;;6.50;5.80;;;11.30;99.90;;;;;;5048269;28;20205;-67
2023/05/14 06:41:20;;;;;;;7.00;6.30;;;11.30;99.90;;;;;;5046940;28;20485;-67
2023/05/14 06:43:46;;;;;;;6.43;5.40;;;11.40;99.90;;;;;;5048366;28;20219;-68
2023/05/14 06:46:15;;;;;;;8.20;6.07;;;11.50;99.90;;;;;;5049775;28;20688;-68
2023/05/14 06:48:41;;;;;;;7.25;6.32;;;11.60;99.90;;;;;;5049877;28;20719;-68
2023/05/14 06:51:09;;;;;;;6.80;6.07;;;11.70;99.90;;;;;;5049583;28;20574;-68
2023/05/14 06:53:36;;;;;;;7.32;5.78;;;11.70;99.90;;;;;;5050015;28;20197;-67
2023/05/14 06:56:03;;;;;;;7.32;6.18;;;11.80;99.90;;;;;;5068871;28;20224;-67
2023/05/14 06:58:29;;;;;;;6.63;5.28;;;11.90;99.90;;;;;;5070110;28;20205;-68
2023/05/14 07:00:56;;;;;;;6.13;5.05;;;12.00;99.90;;;;;;5069471;28;20204;-67
2023/05/14 07:03:24;;;;;;;7.35;5.53;;;12.10;99.90;;;;;;5069682;28;20205;-67
2023/05/14 07:05:51;;;;;;;6.03;5.35;;;12.20;99.90;;;;;;5069247;28;20601;-67
2023/05/14 07:08:17;;;;;;;6.95;5.65;;;12.30;99.90;;;;;;5069467;28;20550;-67
2023/05/14 07:10:44;;;;;;;5.90;5.13;;;12.40;99.90;;;;;;5069548;28;20251;-67
2023/05/14 07:13:11;;;;;;;6.60;5.43;;;12.40;99.90;;;;;;5071753;28;20205;-68
2023/05/14 07:15:37;;;;;;;6.40;5.80;;;12.40;99.90;;;;;;5073462;28;20208;-67
2023/05/14 07:18:04;;;;;;;6.80;6.03;;;12.50;99.90;;;;;;5073391;28;20224;-67
2023/05/14 07:20:32;;;;;;;7.43;6.30;;;12.50;99.90;;;;;;5073474;28;20200;-67
2023/05/14 07:22:59;;;;;;;7.50;6.25;;;12.50;99.90;;;;;;5073469;28;20586;-67
2023/05/14 07:25:26;;;;;;;6.97;5.80;;;12.50;99.90;;;;;;5073176;28;20209;-67
2023/05/14 07:27:52;;;;;;;7.40;5.85;;;12.50;99.90;;;;;;5073390;28;20591;-67
2023/05/14 07:30:19;;;;;;;6.57;5.80;;;12.60;99.90;;;;;;5073084;28;20584;-67
2023/05/14 07:32:46;;;;;;;7.00;6.30;;;12.70;99.90;;;;;;5073547;28;20200;-67
2023/05/14 07:35:12;;;;;;;6.90;5.20;;;12.80;99.90;;;;;;5072755;28;20465;-67
2023/05/14 07:37:41;;;;;;;8.77;5.60;;;12.80;99.90;;;;;;5044454;28;20235;-68
2023/05/14 07:40:09;;;;;;;6.97;5.97;;;12.90;99.90;;;;;;5039962;28;20201;-67
2023/05/14 07:42:35;;;;;;;8.80;7.15;;;13.00;99.90;;;;;;5037621;28;20209;-67
2023/05/14 07:45:03;;;;;;;6.55;5.85;;;13.00;99.90;;;;;;5052004;28;20209;-65
2023/05/14 07:47:30;;;;;;;6.95;6.03;;;13.10;99.90;;;;;;5053101;28;20304;-65
2023/05/14 07:49:57;;;;;;;6.60;5.97;;;13.20;99.90;;;;;;5051759;28;20208;-66
2023/05/14 07:52:24;;;;;;;6.90;6.00;;;13.30;99.90;;;;;;5052210;28;20462;-67
2023/05/14 07:54:52;;;;;;;6.50;5.88;;;13.40;99.90;;;;;;5052178;28;20575;-68
2023/05/14 07:57:19;;;;;;;6.68;6.05;;;13.50;99.90;;;;;;5049709;28;20235;-67
2023/05/14 07:59:47;;;;;;;6.73;5.80;;;13.60;99.90;;;;;;5052519;28;20578;-67
2023/05/14 08:02:14;;;;;;;5.83;5.23;;;13.70;99.90;;;;;;5052690;28;20464;-66
2023/05/14 08:04:42;;;;;;;6.17;5.20;;;13.90;99.90;;;;;;5051606;28;20463;-66
2023/05/14 08:07:09;;;;;;;6.17;5.57;;;14.00;99.90;;;;;;5058522;28;20470;-66
2023/05/14 08:09:36;;;;;;;7.57;6.23;;;14.20;99.90;;;;;;5055479;28;20460;-66
2023/05/14 08:12:07;;;;;;;7.00;6.27;;;14.40;99.90;;;;;;5039006;28;20475;-66
2023/05/14 08:14:34;;;;;;;6.90;6.20;;;14.40;99.90;;;;;;5036887;28;20464;-66
2023/05/14 08:17:02;;;;;;;6.30;5.70;;;14.50;99.90;;;;;;5050577;28;20900;-66
2023/05/14 08:19:29;;;;;;;7.80;7.00;;;14.60;99.90;;;;;;5052157;28;20474;-66
2023/05/14 08:21:57;;;;;;;5.90;5.17;;;14.70;99.90;;;;;;5039242;28;21062;-67
2023/05/14 08:24:24;;;;;;;5.77;5.23;;;14.90;99.90;;;;;;5049704;28;20467;-66
2023/05/14 08:26:51;;;;;;;6.90;4.77;;;15.00;99.90;;;;;;5051510;28;20475;-67
2023/05/14 08:29:19;;;;;;;8.00;6.80;;;15.00;99.90;;;;;;5051513;28;20832;-66
2023/05/14 08:31:46;;;;;;;6.87;5.70;;;15.10;99.90;;;;;;5051975;28;20466;-67
2023/05/14 08:34:12;;;;;;;7.00;5.20;;;15.20;99.90;;;;;;5051008;28;20467;-67
2023/05/14 08:36:39;;;;;;;6.03;5.13;;;15.40;99.90;;;;;;5051831;28;21357;-66
2023/05/14 08:39:07;;;;;;;8.27;6.30;;;15.60;99.90;;;;;;5051271;28;20460;-67
2023/05/14 08:41:34;;;;;;;6.70;5.87;;;15.70;99.90;;;;;;5051624;28;20460;-67
2023/05/14 08:44:08;;;;;;;7.13;6.27;;;15.90;99.90;;;;;;5050855;28;20459;-66
2023/05/14 08:46:37;;;;;;;6.07;5.10;;;15.90;99.90;;;;;;5051533;28;20991;-66
2023/05/14 08:49:14;;;;;;;5.57;5.07;;;16.10;99.90;;;;;;5051126;28;20931;-66
2023/05/14 08:51:42;;;;;;;6.10;5.23;;;16.10;99.90;;;;;;5051687;28;20542;-66
2023/05/14 08:54:10;;;;;;;5.30;4.77;;;16.20;99.90;;;;;;5049461;28;20951;-65
2023/05/14 08:56:38;;;;;;;5.53;4.80;;;16.50;99.90;;;;;;5050549;28;20479;-66
2023/05/14 08:59:05;;;;;;;6.83;5.33;;;16.90;99.90;;;;;;5050862;28;20988;-65
2023/05/14 09:01:32;;;;;;;5.57;5.07;;;17.10;99.90;;;;;;5051456;28;21020;-66
2023/05/14 09:04:05;;;;;;;6.80;5.93;;;17.30;99.90;;;;;;5050398;28;21148;-66
2023/05/14 09:06:33;;;;;;;6.10;5.50;;;17.60;99.90;;;;;;5051285;28;20487;-66
2023/05/14 09:08:59;;;;;;;5.60;4.70;;;18.10;99.90;;;;;;5050865;28;20875;-66
2023/05/14 09:11:26;;;;;;;6.00;4.90;;;18.40;99.90;;;;;;5051125;28;20456;-66
2023/05/14 09:13:53;;;;;;;5.83;4.83;;;18.60;99.90;;;;;;5050627;28;20451;-66
2023/05/14 09:16:21;;;;;;;4.93;4.43;;;19.00;99.90;;;;;;5050832;28;20558;-66
2023/05/14 09:18:48;;;;;;;6.07;5.10;;;19.10;99.90;;;;;;5050399;28;20483;-66
2023/05/14 09:21:17;;;;;;;5.23;4.73;;;18.90;99.90;;;;;;5050665;28;20463;-66
2023/05/14 09:23:46;;;;;;;6.80;5.03;;;18.70;99.90;;;;;;5050658;28;20470;-66
2023/05/14 09:26:17;;;;;;;6.07;5.50;;;18.40;99.90;;;;;;5050540;28;20490;-66
2023/05/14 09:28:43;;;;;;;6.23;5.63;;;18.20;99.90;;;;;;5051004;28;20483;-66
2023/05/14 09:31:10;;;;;;;7.30;5.97;;;18.10;99.90;;;;;;5049072;28;20801;-66
2023/05/14 09:33:37;;;;;;;6.03;5.47;;;18.00;99.90;;;;;;5050489;28;20463;-66
2023/05/14 09:36:04;;;;;;;5.60;5.10;;;18.30;99.90;;;;;;5049563;28;20479;-66
2023/05/14 09:38:33;;;;;;;6.07;5.47;;;18.90;99.90;;;;;;5050471;28;21181;-66
2023/05/14 09:41:00;;;;;;;6.10;5.00;;;19.10;99.90;;;;;;5050515;28;20880;-66
2023/05/14 09:43:27;;;;;;;5.83;5.27;;;19.10;99.90;;;;;;5050400;28;20475;-66
2023/05/14 09:45:54;;;;;;;5.73;5.10;;;19.00;99.90;;;;;;5049922;28;20463;-66
2023/05/14 09:48:21;;;;;;;6.90;5.10;;;18.60;99.90;;;;;;5050639;28;20467;-66
2023/05/14 09:50:48;;;;;;;8.07;5.80;;;18.20;99.90;;;;;;5067241;28;20462;-67
2023/05/14 09:53:16;;;;;;;6.20;5.13;;;18.00;99.90;;;;;;5046180;28;20458;-69
2023/05/14 09:55:45;;;;;;;5.77;5.20;;;17.80;99.90;;;;;;5055064;28;20470;-68
2023/05/14 09:58:13;;;;;;;6.40;5.60;;;18.00;99.90;;;;;;5050790;28;20520;-68
2023/05/14 10:00:44;;;;;;;4.90;4.37;;;18.10;99.90;;;;;;5050157;28;20550;-68
2023/05/14 10:03:13;;;;;;;4.87;4.43;;;18.30;99.90;;;;;;5049637;28;20468;-69
2023/05/14 10:05:41;;;;;;;6.27;5.67;;;18.50;99.90;;;;;;5046375;28;20486;-67
2023/05/14 10:08:13;;;;;;;5.90;4.60;;;18.80;99.90;;;;;;5049742;28;20818;-67
2023/05/14 10:10:40;;;;;;;5.07;4.57;;;18.80;99.90;;;;;;5045872;28;20463;-66
2023/05/14 10:13:15;;;;;;;5.60;4.87;;;18.60;99.90;;;;;;5050068;28;20995;-67
2023/05/14 10:15:55;;;;;;;6.00;4.93;;;18.20;99.90;;;;;;5049779;28;20560;-67
2023/05/14 10:18:24;;;;;;;5.73;4.37;;;18.00;99.90;;;;;;5049767;28;20475;-66
2023/05/14 10:21:00;;;;;;;5.47;3.80;;;17.90;99.90;;;;;;5047424;28;20828;-68
2023/05/14 10:23:27;;;;;;;4.73;4.23;;;17.80;99.90;;;;;;5049936;28;20473;-69
2023/05/14 10:25:54;;;;;;;5.30;4.80;;;17.70;99.90;;;;;;5049297;28;20459;-68
2023/05/14 10:28:22;;;;;;;5.20;4.70;;;17.70;99.90;;;;;;5049943;28;20466;-68
2023/05/14 10:30:49;;;;;;;7.30;5.13;;;17.90;99.90;;;;;;5049677;28;20463;-70
2023/05/14 10:33:17;;;;;;;4.97;4.37;;;17.90;99.90;;;;;;5049314;28;20463;-66
2023/05/14 10:36:01;;;;;;;4.17;3.73;;;18.10;99.90;;;;;;5045983;28;20463;-66
2023/05/14 10:38:29;;;;;;;5.20;4.70;;;18.20;99.90;;;;;;5051297;28;20495;-66
2023/05/14 10:41:00;;;;;;;6.40;5.27;;;18.20;99.90;;;;;;5045801;28;20475;-66
2023/05/14 10:43:29;;;;;;;5.30;4.50;;;18.20;99.90;;;;;;5048865;28;20467;-66
2023/05/14 10:45:57;;;;;;;5.37;4.80;;;18.10;99.90;;;;;;5035983;28;21343;-66
2023/05/14 10:48:25;;;;;;;5.47;4.80;;;18.20;99.90;;;;;;5029803;28;20487;-66
2023/05/14 10:50:52;;;;;;;4.80;4.30;;;18.30;99.90;;;;;;5045160;28;20483;-66
2023/05/14 10:53:21;;;;;;;5.97;5.37;;;18.50;99.90;;;;;;5028163;28;20932;-66
2023/05/14 10:55:47;;;;;;;4.43;4.00;;;18.70;99.90;;;;;;5036941;28;20467;-66
2023/05/14 10:58:15;;;;;;;5.40;4.10;;;19.10;99.90;;;;;;5028142;28;20484;-67
2023/05/14 11:00:47;;;;;;;3.77;3.43;;;19.30;99.90;;;;;;5036113;28;20484;-67
2023/05/14 11:03:13;;;;;;;3.57;3.27;;;19.80;99.90;;;;;;5028142;28;21019;-67
2023/05/14 11:05:41;;;;;;;4.40;4.00;;;20.50;99.90;;;;;;5035902;28;20971;-67
2023/05/14 11:08:08;;;;;;;4.80;4.20;;;21.10;99.90;;;;;;5028068;28;20789;-67
2023/05/14 11:10:35;;;;;;;4.23;3.90;;;21.10;99.90;;;;;;5035826;28;20472;-68
2023/05/14 11:13:02;;;;;;;4.30;3.90;;;21.20;99.90;;;;;;5036592;28;20472;-67
2023/05/14 11:15:29;;;;;;;4.13;3.60;;;21.60;99.90;;;;;;5034945;28;20526;-67
2023/05/14 11:17:57;;;;;;;4.20;3.80;;;21.40;99.90;;;;;;5028846;28;20495;-68
2023/05/14 11:20:24;;;;;;;4.40;4.00;;;21.10;99.90;;;;;;5034729;28;20811;-67
2023/05/14 11:22:51;;;;;;;6.07;4.27;;;20.80;99.90;;;;;;5048925;28;20474;-67
2023/05/14 11:25:18;;;;;;;4.70;4.20;;;20.10;99.90;;;;;;5048478;28;20495;-68
2023/05/14 11:27:46;;;;;;;5.83;4.07;;;19.70;99.90;;;;;;5045556;28;20849;-67
2023/05/14 11:30:15;;;;;;;4.67;4.27;;;20.00;99.90;;;;;;5043543;28;20949;-68
2023/05/14 11:32:44;;;;;;;4.03;3.43;;;21.00;99.90;;;;;;5050232;28;20459;-67
2023/05/14 11:35:12;;;;;;;4.60;4.20;;;21.90;99.90;;;;;;5049028;28;20460;-67
2023/05/14 11:37:39;;;;;;;4.30;3.90;;;22.30;99.90;;;;;;5049377;28;21006;-68
2023/05/14 11:40:09;;;;;;;4.37;3.97;;;22.10;99.90;;;;;;5049449;28;20460;-68
2023/05/14 11:42:37;;;;;;;4.83;4.43;;;21.90;99.90;;;;;;5055463;28;20938;-68
2023/05/14 11:45:04;;;;;;;5.47;4.97;;;21.40;99.90;;;;;;5068156;28;20458;-67
2023/05/14 11:47:31;;;;;;;5.60;5.20;;;20.70;99.90;;;;;;5062882;28;20486;-67
2023/05/14 11:49:59;;;;;;;5.00;4.50;;;20.00;99.90;;;;;;5068916;28;20466;-68
2023/05/14 11:52:28;;;;;;;5.30;4.80;;;19.50;99.90;;;;;;5059989;28;20578;-68
2023/05/14 11:54:55;;;;;;;6.13;5.13;;;19.10;99.90;;;;;;5065360;28;20533;-67
2023/05/14 11:57:22;;;;;;;4.90;4.40;;;18.90;99.90;;;;;;5065631;28;21155;-67
2023/05/14 11:59:55;;;;;;;5.00;4.53;;;18.80;99.90;;;;;;5058660;28;20458;-67
2023/05/14 12:02:22;;;;;;;4.50;4.10;;;19.60;99.90;;;;;;5069184;28;20502;-67
2023/05/14 12:04:50;;;;;;;4.57;3.93;;;20.70;99.90;;;;;;5059512;28;20458;-67
2023/05/14 12:07:17;;;;;;;4.70;3.90;;;21.80;99.90;;;;;;5052590;28;20515;-68
2023/05/14 12:09:48;;;;;;;4.30;3.90;;;23.10;99.90;;;;;;5051826;28;20474;-68
2023/05/14 12:12:17;;;;;;;3.37;3.07;;;24.10;99.90;;;;;;5051996;28;20509;-68
2023/05/14 12:14:45;;;;;;;3.80;3.50;;;24.60;99.90;;;;;;5052173;28;20460;-68
2023/05/14 12:17:13;;;;;;;3.97;3.67;;;25.20;99.90;;;;;;5051927;28;20563;-68
2023/05/14 12:19:41;;;;;;;4.70;4.30;;;25.30;99.90;;;;;;5052073;28;20475;-68
2023/05/14 12:22:08;;;;;;;4.97;4.57;;;24.10;99.90;;;;;;5062194;28;20976;-68
2023/05/14 12:24:35;;;;;;;4.20;3.80;;;23.10;99.90;;;;;;5067272;28;21035;-68
2023/05/14 12:27:03;;;;;;;4.87;4.37;;;21.90;99.90;;;;;;5052253;28;20488;-68
2023/05/14 12:29:30;;;;;;;5.37;4.43;;;21.10;99.90;;;;;;5052403;28;20463;-68
2023/05/14 12:31:58;;;;;;;4.43;3.77;;;20.40;99.90;;;;;;5052929;28;20539;-68
2023/05/14 12:34:25;;;;;;;3.33;3.13;;;19.90;99.90;;;;;;5051922;28;20467;-67
2023/05/14 12:36:52;;;;;;;4.40;4.00;;;19.50;99.90;;;;;;5067707;28;20533;-68
2023/05/14 12:39:20;;;;;;;4.27;3.63;;;19.30;99.90;;;;;;5060428;28;20482;-67
2023/05/14 12:41:47;;;;;;;6.23;5.03;;;19.20;99.90;;;;;;5046523;28;20495;-67
2023/05/14 12:44:16;;;;;;;4.30;3.90;;;19.00;99.90;;;;;;5051619;28;20537;-67
2023/05/14 12:46:43;;;;;;;4.57;4.20;;;18.90;99.90;;;;;;5070519;28;20482;-67
2023/05/14 12:49:11;;;;;;;4.23;3.83;;;18.80;99.90;;;;;;5060592;28;20498;-68